createdAt,value
2023-05-07T00:01:12.967Z,20.47
2023-05-07T00:03:40.834Z,19.47
2023-05-07T00:06:08.957Z,19.67
2023-05-07T00:08:36.687Z,17.90
2023-05-07T00:11:04.771Z,17.83
2023-05-07T00:13:36.291Z,17.43
2023-05-07T00:16:05.819Z,23.37
2023-05-07T00:18:33.545Z,20.93
2023-05-07T00:21:01.278Z,17.97
2023-05-07T00:23:29.210Z,19.83
2023-05-07T00:25:56.935Z,17.60
2023-05-07T00:28:24.614Z,24.13
2023-05-07T00:30:52.265Z,22.43
2023-05-07T00:33:21.679Z,18.47
2023-05-07T00:35:49.511Z,19.43
2023-05-07T00:38:17.359Z,20.23
2023-05-07T00:40:45.045Z,20.53
2023-05-07T00:43:13.670Z,23.83
2023-05-07T00:45:41.890Z,26.20
2023-05-07T00:48:09.749Z,24.63
2023-05-07T00:50:38.758Z,19.60
2023-05-07T00:53:06.563Z,23.80
2023-05-07T00:55:35.049Z,23.97
2023-05-07T00:58:02.729Z,22.33
2023-05-07T01:00:30.540Z,21.33
2023-05-07T01:02:58.556Z,24.10
2023-05-07T01:05:27.984Z,26.43
2023-05-07T01:07:58.789Z,29.23
2023-05-07T01:10:26.652Z,30.57
2023-05-07T01:12:54.722Z,24.27
2023-05-07T01:15:22.515Z,22.07
2023-05-07T01:17:50.473Z,28.17
2023-05-07T01:20:18.958Z,28.87
2023-05-07T01:22:47.981Z,28.40
2023-05-07T01:25:17.268Z,26.67
2023-05-07T01:27:45.013Z,26.13
2023-05-07T01:30:13.989Z,27.33
2023-05-07T01:32:44.823Z,27.87
2023-05-07T01:35:14.560Z,27.83
2023-05-07T01:37:42.399Z,24.53
2023-05-07T01:40:12.534Z,30.53
2023-05-07T01:42:40.513Z,28.43
2023-05-07T01:45:09.155Z,28.43
2023-05-07T01:47:38.579Z,27.60
2023-05-07T01:50:09.679Z,27.27
2023-05-07T01:52:38.585Z,29.93
2023-05-07T01:55:07.810Z,28.47
2023-05-07T01:57:36.913Z,28.10
2023-05-07T02:00:07.259Z,28.57
2023-05-07T02:02:35.132Z,31.50
2023-05-07T02:05:04.988Z,28.97
2023-05-07T02:07:32.679Z,29.90
2023-05-07T02:10:00.340Z,28.37
2023-05-07T02:12:27.981Z,29.37
2023-05-07T02:14:57.011Z,27.50
2023-05-07T02:17:24.811Z,35.30
2023-05-07T02:19:52.520Z,32.63
2023-05-07T02:22:20.244Z,31.77
2023-05-07T02:24:47.951Z,33.30
2023-05-07T02:27:15.676Z,30.40
2023-05-07T02:29:43.340Z,32.67
2023-05-07T02:32:12.610Z,35.03
2023-05-07T02:34:40.466Z,34.83
2023-05-07T02:37:08.168Z,35.40
2023-05-07T02:39:35.893Z,27.67
2023-05-07T02:42:03.696Z,31.47
2023-05-07T02:44:32.449Z,33.30
2023-05-07T02:47:00.192Z,29.07
2023-05-07T02:49:29.198Z,36.60
2023-05-07T02:51:56.844Z,32.80
2023-05-07T02:54:24.582Z,34.23
2023-05-07T02:56:52.234Z,33.77
2023-05-07T02:59:19.993Z,31.50
2023-05-07T03:01:47.851Z,34.03
2023-05-07T03:04:15.673Z,31.80
2023-05-07T03:06:44.831Z,30.87
2023-05-07T03:09:12.616Z,33.90
2023-05-07T03:11:40.382Z,35.23
2023-05-07T03:14:08.058Z,35.33
2023-05-07T03:16:35.787Z,35.23
2023-05-07T03:19:03.614Z,40.23
2023-05-07T03:21:34.717Z,42.20
2023-05-07T03:24:03.735Z,39.07
2023-05-07T03:26:31.448Z,41.93
2023-05-07T03:28:59.175Z,39.00
2023-05-07T03:31:27.045Z,44.83
2023-05-07T03:33:56.285Z,38.50
2023-05-07T03:36:24.685Z,38.60
2023-05-07T03:38:52.338Z,40.73
2023-05-07T03:41:21.500Z,43.33
2023-05-07T03:43:49.147Z,41.80
2023-05-07T03:46:16.917Z,43.73
2023-05-07T03:48:44.614Z,45.87
2023-05-07T03:51:12.391Z,41.33
2023-05-07T03:53:40.068Z,43.10
2023-05-07T03:56:07.800Z,40.37
2023-05-07T03:58:36.894Z,44.00
2023-05-07T04:01:05.012Z,46.10
2023-05-07T04:03:32.719Z,39.80
2023-05-07T04:06:00.395Z,46.97
2023-05-07T04:08:28.123Z,47.23
2023-05-07T04:10:58.947Z,47.97
2023-05-07T04:13:26.794Z,46.70
2023-05-07T04:15:56.659Z,46.97
2023-05-07T04:18:24.334Z,44.17
2023-05-07T04:20:51.995Z,43.63
2023-05-07T04:23:19.965Z,49.27
2023-05-07T04:25:47.702Z,47.53
2023-05-07T04:28:15.357Z,47.13
2023-05-07T04:30:43.079Z,49.10
2023-05-07T04:33:12.620Z,42.03
2023-05-07T04:35:40.607Z,51.00
2023-05-07T04:38:08.306Z,49.97
2023-05-07T04:40:37.756Z,48.07
2023-05-07T04:43:05.585Z,48.13
2023-05-07T04:45:34.227Z,47.97
2023-05-07T04:48:02.149Z,50.47
2023-05-07T04:50:31.514Z,46.43
2023-05-07T04:52:59.216Z,46.67
2023-05-07T04:55:26.927Z,46.60
2023-05-07T04:57:55.316Z,47.57
2023-05-07T05:00:23.987Z,48.83
2023-05-07T05:02:51.846Z,39.43
2023-05-07T05:05:19.680Z,43.30
2023-05-07T05:07:48.846Z,45.07
2023-05-07T05:10:17.247Z,43.33
2023-05-07T05:12:45.265Z,46.03
2023-05-07T05:15:13.605Z,46.43
2023-05-07T05:17:41.720Z,46.57
2023-05-07T05:20:11.991Z,44.83
2023-05-07T05:22:39.798Z,44.80
2023-05-07T05:25:09.533Z,45.03
2023-05-07T05:27:37.291Z,40.10
2023-05-07T05:30:06.366Z,43.80
2023-05-07T05:32:34.772Z,41.23
2023-05-07T05:35:02.837Z,41.87
2023-05-07T05:37:31.238Z,42.57
2023-05-07T05:39:59.425Z,42.93
2023-05-07T05:42:28.749Z,40.67
2023-05-07T05:44:56.832Z,39.17
2023-05-07T05:47:24.967Z,42.50
2023-05-07T05:49:52.751Z,40.77
2023-05-07T05:52:20.861Z,38.43
2023-05-07T05:54:48.673Z,46.27
2023-05-07T05:57:16.344Z,46.50
2023-05-07T05:59:46.211Z,45.10
2023-05-07T06:02:13.982Z,40.77
2023-05-07T06:04:41.968Z,42.57
2023-05-07T06:07:09.701Z,43.13
2023-05-07T06:09:37.393Z,40.17
2023-05-07T06:12:05.289Z,41.53
2023-05-07T06:14:33.169Z,41.57
2023-05-07T06:17:02.263Z,42.07
2023-05-07T06:19:30.037Z,39.67
2023-05-07T06:21:58.134Z,41.87
2023-05-07T06:24:26.292Z,40.97
2023-05-07T06:26:54.025Z,44.57
2023-05-07T06:29:21.759Z,42.10
2023-05-07T06:31:49.468Z,39.77
2023-05-07T06:34:18.482Z,40.20
2023-05-07T06:36:46.166Z,42.57
2023-05-07T06:39:13.963Z,43.33
2023-05-07T06:41:41.656Z,40.83
2023-05-07T06:44:09.828Z,40.07
2023-05-07T06:46:37.773Z,41.67
2023-05-07T06:49:05.965Z,42.27
2023-05-07T06:51:35.427Z,38.50
2023-05-07T06:54:03.198Z,37.80
2023-05-07T06:56:30.860Z,45.43
2023-05-07T06:58:58.577Z,39.13
2023-05-07T07:01:26.255Z,39.43
2023-05-07T07:03:53.942Z,38.57
2023-05-07T07:06:21.685Z,38.93
2023-05-07T07:08:50.919Z,37.00
2023-05-07T07:11:18.978Z,40.47
2023-05-07T07:13:46.626Z,39.70
2023-05-07T07:16:14.356Z,44.73
2023-05-07T07:18:42.096Z,38.70
2023-05-07T07:21:09.777Z,40.47
2023-05-07T07:23:37.420Z,37.67
2023-05-07T07:26:07.056Z,38.13
2023-05-07T07:28:35.204Z,38.20
2023-05-07T07:31:02.940Z,34.57
2023-05-07T07:33:30.646Z,34.87
2023-05-07T07:35:58.353Z,38.90
2023-05-07T07:38:26.118Z,38.17
2023-05-07T07:40:53.763Z,37.47
2023-05-07T07:43:22.807Z,36.97
2023-05-07T07:45:50.724Z,43.40
2023-05-07T07:48:18.448Z,38.40
2023-05-07T07:50:46.554Z,38.07
2023-05-07T07:53:14.381Z,36.07
2023-05-07T07:55:42.290Z,36.20
2023-05-07T07:58:10.428Z,36.47
2023-05-07T08:00:39.567Z,39.57
2023-05-07T08:03:08.443Z,37.93
2023-05-07T08:05:36.363Z,40.00
2023-05-07T08:08:04.133Z,39.03
2023-05-07T08:10:35.512Z,38.43
2023-05-07T08:13:04.977Z,39.17
2023-05-07T08:15:32.923Z,35.30
2023-05-07T08:18:03.046Z,36.27
2023-05-07T08:20:31.108Z,37.03
2023-05-07T08:22:58.895Z,40.03
2023-05-07T08:25:26.604Z,37.10
2023-05-07T08:27:54.282Z,39.80
2023-05-07T08:30:22.220Z,34.47
2023-05-07T08:32:49.957Z,38.57
2023-05-07T08:35:19.086Z,36.33
2023-05-07T08:37:46.805Z,35.70
2023-05-07T08:40:14.872Z,34.50
2023-05-07T08:42:43.355Z,35.77
2023-05-07T08:45:11.977Z,32.63
2023-05-07T08:47:45.876Z,34.50
2023-05-07T08:50:13.975Z,39.90
2023-05-07T08:52:43.205Z,32.73
2023-05-07T08:55:12.073Z,41.57
2023-05-07T08:57:40.335Z,37.47
2023-05-07T09:00:09.224Z,33.43
2023-05-07T09:02:37.930Z,33.10
2023-05-07T09:05:06.452Z,34.03
2023-05-07T09:07:34.516Z,35.57
2023-05-07T09:10:05.138Z,34.20
2023-05-07T09:12:32.986Z,32.97
2023-05-07T09:15:01.341Z,37.50
2023-05-07T09:17:29.121Z,34.37
2023-05-07T09:19:56.799Z,33.90
2023-05-07T09:22:24.462Z,32.33
2023-05-07T09:24:52.681Z,36.97
2023-05-07T09:27:21.739Z,33.37
2023-05-07T09:29:49.419Z,37.27
2023-05-07T09:32:17.307Z,32.67
2023-05-07T09:34:44.985Z,33.60
2023-05-07T09:37:14.570Z,32.63
2023-05-07T09:39:42.763Z,37.10
2023-05-07T09:42:10.612Z,30.30
2023-05-07T09:44:40.314Z,32.30
2023-05-07T09:47:08.554Z,32.90
2023-05-07T09:49:37.672Z,37.27
2023-05-07T09:52:07.433Z,34.27
2023-05-07T09:54:35.378Z,29.40
2023-05-07T09:57:04.570Z,30.50
2023-05-07T09:59:33.568Z,31.17
2023-05-07T10:02:05.092Z,30.37
2023-05-07T10:04:33.595Z,32.10
2023-05-07T10:07:01.887Z,31.37
2023-05-07T10:09:30.171Z,29.70
2023-05-07T10:11:58.553Z,29.77
2023-05-07T10:14:26.662Z,30.40
2023-05-07T10:16:54.812Z,33.93
2023-05-07T10:19:24.224Z,35.53
2023-05-07T10:21:57.873Z,31.20
2023-05-07T10:24:28.372Z,31.77
2023-05-07T10:26:57.642Z,30.97
2023-05-07T10:29:33.208Z,30.67
2023-05-07T10:32:11.419Z,31.17
2023-05-07T10:34:43.737Z,30.47
2023-05-07T10:37:12.014Z,26.73
2023-05-07T10:39:39.970Z,27.43
2023-05-07T10:42:11.208Z,32.07
2023-05-07T10:44:39.025Z,28.77
2023-05-07T10:47:10.054Z,27.33
2023-05-07T10:49:40.417Z,28.20
2023-05-07T10:52:16.868Z,30.50
2023-05-07T10:54:45.477Z,29.30
2023-05-07T10:57:36.591Z,30.50
2023-05-07T11:00:04.893Z,30.90
2023-05-07T11:03:07.814Z,29.63
2023-05-07T11:05:38.737Z,27.87
2023-05-07T11:08:07.143Z,34.17
2023-05-07T11:10:51.808Z,28.93
2023-05-07T11:13:20.911Z,27.20
2023-05-07T11:15:49.592Z,28.83
2023-05-07T11:18:18.551Z,25.67
2023-05-07T11:20:55.673Z,30.63
2023-05-07T11:23:58.907Z,29.20
2023-05-07T11:26:27.340Z,28.60
2023-05-07T11:28:55.692Z,25.90
2023-05-07T11:31:25.464Z,24.27
2023-05-07T11:33:54.398Z,26.53
2023-05-07T11:36:24.835Z,26.87
2023-05-07T11:38:52.623Z,24.83
2023-05-07T11:41:22.883Z,26.60
2023-05-07T11:44:00.990Z,23.57
2023-05-07T11:46:30.391Z,24.17
2023-05-07T11:48:58.560Z,26.30
2023-05-07T11:51:30.964Z,29.67
2023-05-07T11:53:58.697Z,23.70
2023-05-07T11:56:26.450Z,24.37
2023-05-07T11:58:54.163Z,26.60
2023-05-07T12:01:21.876Z,23.43
2023-05-07T12:03:49.664Z,25.60
2023-05-07T12:06:18.235Z,23.13
2023-05-07T12:08:48.458Z,24.13
2023-05-07T12:11:18.782Z,23.67
2023-05-07T12:13:46.776Z,23.97
2023-05-07T12:16:14.761Z,23.27
2023-05-07T12:18:42.690Z,24.00
2023-05-07T12:21:10.953Z,22.83
2023-05-07T12:23:39.690Z,26.70
2023-05-07T12:26:09.197Z,24.40
2023-05-07T12:28:41.053Z,21.20
2023-05-07T12:31:09.352Z,24.67
2023-05-07T12:33:37.702Z,23.13
2023-05-07T12:36:08.894Z,24.73
2023-05-07T12:38:37.940Z,21.10
2023-05-07T12:41:06.278Z,19.33
2023-05-07T12:43:35.558Z,24.37
2023-05-07T12:46:06.673Z,21.33
2023-05-07T12:48:35.232Z,22.97
2023-05-07T12:51:03.890Z,25.50
2023-05-07T12:53:32.401Z,22.83
2023-05-07T12:56:01.740Z,24.50
2023-05-07T12:58:31.097Z,22.53
2023-05-07T13:01:01.603Z,23.53
2023-05-07T13:03:30.739Z,21.37
2023-05-07T13:06:00.662Z,19.40
2023-05-07T13:08:30.688Z,19.07
2023-05-07T13:10:59.466Z,22.43
2023-05-07T13:13:28.433Z,17.90
2023-05-07T13:15:58.054Z,16.40
2023-05-07T13:18:28.185Z,20.43
2023-05-07T13:20:56.112Z,19.00
2023-05-07T13:23:24.355Z,18.17
2023-05-07T13:25:53.621Z,19.20
2023-05-07T13:28:22.122Z,18.80
2023-05-07T13:30:49.942Z,20.57
2023-05-07T13:33:17.952Z,17.27
2023-05-07T13:35:46.988Z,19.83
2023-05-07T13:38:16.864Z,21.27
2023-05-07T13:40:44.643Z,15.47
2023-05-07T13:43:12.574Z,20.67
2023-05-07T13:45:40.289Z,19.13
2023-05-07T13:48:08.013Z,17.50
2023-05-07T13:50:36.220Z,17.00
2023-05-07T13:53:05.227Z,16.83
2023-05-07T13:55:32.934Z,19.87
2023-05-07T13:58:01.740Z,15.63
2023-05-07T14:00:30.423Z,15.60
2023-05-07T14:02:58.796Z,16.87
2023-05-07T14:05:27.669Z,16.60
2023-05-07T14:07:55.496Z,17.57
2023-05-07T14:10:24.593Z,17.20
2023-05-07T14:12:53.662Z,15.83
2023-05-07T14:15:21.486Z,15.70
2023-05-07T14:17:49.146Z,15.37
2023-05-07T14:20:16.914Z,14.40
2023-05-07T14:22:44.558Z,14.70
2023-05-07T14:25:12.222Z,15.57
2023-05-07T14:27:41.289Z,18.23
2023-05-07T14:30:10.113Z,15.67
2023-05-07T14:32:38.687Z,15.13
2023-05-07T14:35:06.922Z,17.23
2023-05-07T14:37:34.587Z,14.63
2023-05-07T14:40:02.458Z,14.30
2023-05-07T14:42:30.218Z,18.17
2023-05-07T14:44:59.290Z,15.77
2023-05-07T14:47:27.178Z,18.20
2023-05-07T14:49:55.465Z,13.93
2023-05-07T14:52:23.134Z,15.13
2023-05-07T14:54:50.934Z,14.70
2023-05-07T14:57:19.504Z,13.43
2023-05-07T14:59:47.922Z,15.00
2023-05-07T15:02:20.912Z,13.07
2023-05-07T15:04:49.627Z,13.97
2023-05-07T15:07:18.418Z,12.63
2023-05-07T15:09:46.843Z,13.80
2023-05-07T15:12:14.891Z,13.17
2023-05-07T15:14:43.213Z,12.63
2023-05-07T15:17:10.993Z,15.00
2023-05-07T15:19:40.401Z,13.13
2023-05-07T15:22:08.203Z,14.83
2023-05-07T15:24:36.246Z,14.43
2023-05-07T15:27:04.692Z,14.30
2023-05-07T15:29:32.379Z,12.73
2023-05-07T15:32:00.234Z,15.27
2023-05-07T15:34:28.460Z,15.93
2023-05-07T15:36:58.720Z,13.33
2023-05-07T15:39:26.364Z,13.40
2023-05-07T15:41:54.084Z,11.73
2023-05-07T15:44:22.022Z,13.87
2023-05-07T15:46:49.724Z,13.77
2023-05-07T15:49:17.382Z,14.40
2023-05-07T15:51:45.077Z,14.57
2023-05-07T15:54:14.163Z,11.37
2023-05-07T15:56:41.818Z,13.13
2023-05-07T15:59:10.171Z,13.37
2023-05-07T16:01:37.904Z,12.97
2023-05-07T16:04:05.956Z,11.83
2023-05-07T16:06:33.702Z,11.57
2023-05-07T16:09:01.421Z,15.40
2023-05-07T16:11:31.381Z,11.23
2023-05-07T16:14:00.824Z,12.47
2023-05-07T16:16:30.126Z,13.13
2023-05-07T16:18:58.025Z,12.57
2023-05-07T16:21:25.737Z,11.53
2023-05-07T16:23:53.403Z,10.67
2023-05-07T16:26:21.208Z,13.87
2023-05-07T16:28:51.707Z,12.37
2023-05-07T16:31:19.755Z,12.30
2023-05-07T16:33:47.492Z,13.60
2023-05-07T16:36:15.235Z,14.30
2023-05-07T16:38:42.901Z,11.73
2023-05-07T16:41:11.602Z,13.63
2023-05-07T16:43:39.329Z,12.17
2023-05-07T16:46:08.427Z,12.63
2023-05-07T16:48:36.227Z,12.93
2023-05-07T16:51:03.924Z,11.33
2023-05-07T16:53:31.644Z,11.33
2023-05-07T16:55:59.375Z,13.87
2023-05-07T16:58:28.110Z,10.50
2023-05-07T17:00:55.909Z,13.03
2023-05-07T17:03:25.102Z,10.43
2023-05-07T17:05:53.304Z,12.23
2023-05-07T17:08:20.970Z,12.60
2023-05-07T17:10:48.640Z,10.77
2023-05-07T17:13:16.379Z,14.40
2023-05-07T17:15:46.504Z,11.73
2023-05-07T17:18:14.491Z,15.87
2023-05-07T17:20:43.541Z,10.93
2023-05-07T17:23:11.203Z,11.00
2023-05-07T17:25:39.149Z,12.03
2023-05-07T17:28:06.877Z,11.10
2023-05-07T17:30:34.614Z,11.07
2023-05-07T17:33:16.762Z,12.23
2023-05-07T17:35:46.268Z,12.07
2023-05-07T17:38:13.976Z,10.93
2023-05-07T17:40:41.677Z,11.00
2023-05-07T17:43:09.340Z,10.90
2023-05-07T17:45:37.154Z,12.40
2023-05-07T17:48:05.734Z,12.90
2023-05-07T17:50:33.591Z,12.03
2023-05-07T17:53:02.601Z,16.70
2023-05-07T17:55:33.521Z,15.20
2023-05-07T17:58:03.263Z,14.03
2023-05-07T18:00:31.052Z,12.27
2023-05-07T18:03:00.100Z,12.57
2023-05-07T18:05:28.369Z,13.47
2023-05-07T18:07:56.232Z,12.57
2023-05-07T18:10:25.299Z,14.17
2023-05-07T18:12:53.024Z,12.97
2023-05-07T18:15:20.832Z,22.80
2023-05-07T18:17:48.584Z,16.93
2023-05-07T18:20:16.399Z,12.73
2023-05-07T18:22:44.149Z,13.33
2023-05-07T18:25:11.866Z,20.07
2023-05-07T18:27:41.162Z,15.57
2023-05-07T18:30:10.191Z,13.67
2023-05-07T18:32:38.069Z,14.20
2023-05-07T18:35:06.651Z,16.27
2023-05-07T18:37:34.617Z,14.37
2023-05-07T18:40:04.074Z,14.37
2023-05-07T18:42:34.035Z,14.87
2023-05-07T18:45:06.107Z,14.93
2023-05-07T18:47:33.874Z,22.10
2023-05-07T18:50:01.798Z,15.40
2023-05-07T18:52:30.497Z,15.37
2023-05-07T18:54:58.271Z,18.40
2023-05-07T18:57:27.635Z,13.90
2023-05-07T18:59:55.626Z,14.40
2023-05-07T19:02:24.796Z,15.13
2023-05-07T19:04:52.484Z,15.60
2023-05-07T19:07:20.201Z,16.87
2023-05-07T19:10:01.049Z,14.30
2023-05-07T19:12:31.666Z,14.47
2023-05-07T19:14:59.396Z,14.47
2023-05-07T19:17:28.494Z,15.03
2023-05-07T19:19:56.324Z,13.90
2023-05-07T19:22:24.010Z,14.20
2023-05-07T19:24:52.158Z,13.93
2023-05-07T19:27:19.903Z,16.83
2023-05-07T19:29:47.584Z,16.50
2023-05-07T19:32:15.351Z,16.13
2023-05-07T19:34:44.375Z,13.90
2023-05-07T19:37:12.083Z,13.73
2023-05-07T19:39:40.482Z,13.83
2023-05-07T19:42:08.210Z,14.07
2023-05-07T19:44:35.881Z,14.23
2023-05-07T19:47:05.716Z,16.00
2023-05-07T19:49:33.542Z,13.97
2023-05-07T19:52:02.653Z,16.87
2023-05-07T19:54:30.800Z,14.33
2023-05-07T19:56:58.652Z,14.53
2023-05-07T19:59:27.167Z,14.37
2023-05-07T20:01:55.138Z,14.70
2023-05-07T20:04:25.360Z,14.67
2023-05-07T20:06:53.089Z,13.43
2023-05-07T20:09:22.111Z,16.83
2023-05-07T20:11:49.838Z,16.17
2023-05-07T20:14:17.958Z,15.13
2023-05-07T20:16:46.005Z,16.27
2023-05-07T20:19:13.733Z,15.07
2023-05-07T20:21:41.567Z,14.67
2023-05-07T20:24:09.645Z,15.03
2023-05-07T20:26:38.707Z,15.67
2023-05-07T20:29:06.966Z,16.80
2023-05-07T20:31:35.405Z,14.47
2023-05-07T20:34:03.366Z,15.77
2023-05-07T20:36:31.065Z,15.50
2023-05-07T20:38:58.725Z,15.27
2023-05-07T20:41:26.823Z,16.47
2023-05-07T20:43:57.063Z,14.80
2023-05-07T20:46:25.584Z,16.50
2023-05-07T20:48:53.280Z,18.90
2023-05-07T20:51:20.942Z,16.00
2023-05-07T20:53:48.575Z,15.93
2023-05-07T20:56:16.391Z,16.43
2023-05-07T20:58:44.095Z,16.57
2023-05-07T21:01:13.339Z,16.27
2023-05-07T21:03:41.299Z,17.40
2023-05-07T21:06:08.940Z,15.77
2023-05-07T21:08:36.591Z,16.30
2023-05-07T21:11:05.750Z,15.97
2023-05-07T21:13:33.395Z,17.83
2023-05-07T21:16:01.151Z,17.73
2023-05-07T21:18:30.875Z,16.73
2023-05-07T21:20:58.579Z,18.13
2023-05-07T21:23:26.310Z,15.93
2023-05-07T21:25:54.025Z,16.30
2023-05-07T21:28:21.664Z,17.57
2023-05-07T21:30:49.361Z,18.50
2023-05-07T21:33:17.066Z,16.50
2023-05-07T21:35:46.087Z,16.73
2023-05-07T21:38:14.070Z,15.47
2023-05-07T21:40:41.844Z,15.27
2023-05-07T21:43:09.522Z,17.63
2023-05-07T21:45:37.242Z,16.00
2023-05-07T21:48:05.397Z,15.70
2023-05-07T21:50:33.168Z,16.93
2023-05-07T21:53:02.241Z,16.93
2023-05-07T21:55:30.078Z,16.73
2023-05-07T21:58:05.542Z,14.63
2023-05-07T22:00:34.167Z,17.13
2023-05-07T22:03:01.939Z,16.17
2023-05-07T22:05:29.714Z,16.70
2023-05-07T22:07:57.355Z,16.63
2023-05-07T22:10:26.442Z,16.97
2023-05-07T22:12:54.203Z,20.07
2023-05-07T22:15:21.997Z,17.90
2023-05-07T22:17:49.669Z,15.90
2023-05-07T22:20:17.637Z,16.27
2023-05-07T22:22:51.114Z,18.73
2023-05-07T22:25:20.435Z,16.67
2023-05-07T22:27:49.819Z,15.50
2023-05-07T22:30:17.723Z,16.27
2023-05-07T22:32:46.500Z,16.27
2023-05-07T22:35:15.063Z,19.07
2023-05-07T22:37:42.756Z,16.13
2023-05-07T22:40:11.454Z,17.73
2023-05-07T22:42:39.407Z,20.60
2023-05-07T22:45:09.670Z,16.50
2023-05-07T22:47:37.350Z,15.43
2023-05-07T22:50:06.489Z,16.53
2023-05-07T22:52:34.587Z,14.60
2023-05-07T22:55:02.525Z,18.03
2023-05-07T22:57:30.445Z,18.43
2023-05-07T22:59:58.428Z,16.43
2023-05-07T23:02:29.180Z,17.27
2023-05-07T23:04:59.680Z,16.57
2023-05-07T23:07:27.398Z,16.60
2023-05-07T23:09:55.061Z,20.67
2023-05-07T23:12:22.792Z,17.43
2023-05-07T23:14:50.889Z,16.10
2023-05-07T23:17:18.533Z,16.63
2023-05-07T23:19:47.803Z,18.87
2023-05-07T23:22:15.932Z,16.70
2023-05-07T23:24:43.783Z,16.63
2023-05-07T23:27:11.561Z,17.43
2023-05-07T23:29:39.312Z,17.47
2023-05-07T23:32:07.058Z,16.03
2023-05-07T23:34:34.720Z,20.57
2023-05-07T23:37:03.844Z,20.27
2023-05-07T23:39:31.578Z,21.63
2023-05-07T23:41:59.245Z,19.80
2023-05-07T23:44:26.938Z,16.87
2023-05-07T23:46:54.712Z,18.43
2023-05-07T23:49:22.382Z,19.83
2023-05-07T23:51:50.035Z,17.37
2023-05-07T23:54:19.567Z,17.27
2023-05-07T23:56:47.261Z,21.57
2023-05-07T23:59:14.972Z,18.17
